sensor_id;sensor_type;location;lat;lon;timestamp;P1;durP1;ratioP1;P2;durP2;ratioP2
13849;SDS011;6995;52.618;13.488;2024-02-26T00:01:26;34.23;;;31.83;;
13849;SDS011;6995;52.618;13.488;2024-02-26T00:03:52;37.03;;;34.90;;
13849;SDS011;6995;52.618;13.488;2024-02-26T00:06:18;33.80;;;31.60;;
13849;SDS011;6995;52.618;13.488;2024-02-26T00:08:44;35.57;;;33.23;;
13849;SDS011;6995;52.618;13.488;2024-02-26T00:11:10;34.43;;;32.13;;
13849;SDS011;6995;52.618;13.488;2024-02-26T00:13:36;31.73;;;29.53;;
13849;SDS011;6995;52.618;13.488;2024-02-26T00:16:02;33.27;;;31.27;;
13849;SDS011;6995;52.618;13.488;2024-02-26T00:18:32;29.33;;;27.43;;
13849;SDS011;6995;52.618;13.488;2024-02-26T00:20:58;30.53;;;28.53;;
13849;SDS011;6995;52.618;13.488;2024-02-26T00:23:23;30.27;;;28.17;;
13849;SDS011;6995;52.618;13.488;2024-02-26T00:25:49;28.50;;;26.50;;
13849;SDS011;6995;52.618;13.488;2024-02-26T00:28:15;29.73;;;27.73;;
13849;SDS011;6995;52.618;13.488;2024-02-26T00:30:40;29.97;;;28.17;;
13849;SDS011;6995;52.618;13.488;2024-02-26T00:33:06;28.43;;;26.70;;
13849;SDS011;6995;52.618;13.488;2024-02-26T00:35:32;30.10;;;28.30;;
13849;SDS011;6995;52.618;13.488;2024-02-26T00:37:57;29.60;;;27.70;;
13849;SDS011;6995;52.618;13.488;2024-02-26T00:40:23;38.63;;;36.00;;
13849;SDS011;6995;52.618;13.488;2024-02-26T00:42:49;30.50;;;28.40;;
13849;SDS011;6995;52.618;13.488;2024-02-26T00:45:15;30.00;;;27.70;;
13849;SDS011;6995;52.618;13.488;2024-02-26T00:47:41;29.63;;;27.80;;
13849;SDS011;6995;52.618;13.488;2024-02-26T00:50:09;28.87;;;27.17;;
13849;SDS011;6995;52.618;13.488;2024-02-26T00:52:35;28.27;;;26.67;;
13849;SDS011;6995;52.618;13.488;2024-02-26T00:57:27;30.63;;;28.63;;
13849;SDS011;6995;52.618;13.488;2024-02-26T00:59:53;28.23;;;26.43;;
13849;SDS011;6995;52.618;13.488;2024-02-26T01:02:20;29.17;;;27.27;;
13849;SDS011;6995;52.618;13.488;2024-02-26T01:04:46;28.33;;;26.73;;
13849;SDS011;6995;52.618;13.488;2024-02-26T01:07:12;31.40;;;29.60;;
13849;SDS011;6995;52.618;13.488;2024-02-26T01:09:38;28.53;;;26.93;;
13849;SDS011;6995;52.618;13.488;2024-02-26T01:12:04;28.50;;;26.70;;
13849;SDS011;6995;52.618;13.488;2024-02-26T01:14:29;31.17;;;29.27;;
13849;SDS011;6995;52.618;13.488;2024-02-26T01:16:55;30.27;;;28.60;;
13849;SDS011;6995;52.618;13.488;2024-02-26T01:19:21;27.97;;;26.17;;
13849;SDS011;6995;52.618;13.488;2024-02-26T01:21:46;29.47;;;27.87;;
13849;SDS011;6995;52.618;13.488;2024-02-26T01:24:12;30.63;;;28.83;;
13849;SDS011;6995;52.618;13.488;2024-02-26T01:26:37;26.97;;;25.13;;
13849;SDS011;6995;52.618;13.488;2024-02-26T01:29:04;28.77;;;27.00;;
13849;SDS011;6995;52.618;13.488;2024-02-26T01:31:29;25.80;;;24.30;;
13849;SDS011;6995;52.618;13.488;2024-02-26T01:33:55;27.70;;;26.20;;
13849;SDS011;6995;52.618;13.488;2024-02-26T01:36:20;25.97;;;24.47;;
13849;SDS011;6995;52.618;13.488;2024-02-26T01:38:46;25.73;;;24.13;;
13849;SDS011;6995;52.618;13.488;2024-02-26T01:41:13;26.43;;;24.73;;
13849;SDS011;6995;52.618;13.488;2024-02-26T01:43:39;28.70;;;27.03;;
13849;SDS011;6995;52.618;13.488;2024-02-26T01:46:05;27.93;;;26.23;;
13849;SDS011;6995;52.618;13.488;2024-02-26T01:48:35;26.80;;;25.10;;
13849;SDS011;6995;52.618;13.488;2024-02-26T01:51:01;26.27;;;24.77;;
13849;SDS011;6995;52.618;13.488;2024-02-26T01:53:27;27.93;;;26.20;;
13849;SDS011;6995;52.618;13.488;2024-02-26T01:55:53;27.53;;;25.70;;
13849;SDS011;6995;52.618;13.488;2024-02-26T01:58:18;26.73;;;25.23;;
13849;SDS011;6995;52.618;13.488;2024-02-26T02:00:45;30.50;;;28.80;;
13849;SDS011;6995;52.618;13.488;2024-02-26T02:03:11;30.50;;;28.80;;
13849;SDS011;6995;52.618;13.488;2024-02-26T02:05:37;27.83;;;26.30;;
13849;SDS011;6995;52.618;13.488;2024-02-26T02:08:07;27.30;;;25.60;;
13849;SDS011;6995;52.618;13.488;2024-02-26T02:10:36;29.07;;;27.33;;
13849;SDS011;6995;52.618;13.488;2024-02-26T02:13:03;28.37;;;26.63;;
13849;SDS011;6995;52.618;13.488;2024-02-26T02:15:29;29.47;;;27.77;;
13849;SDS011;6995;52.618;13.488;2024-02-26T02:17:54;29.47;;;27.67;;
13849;SDS011;6995;52.618;13.488;2024-02-26T02:20:24;29.47;;;27.77;;
13849;SDS011;6995;52.618;13.488;2024-02-26T02:22:52;26.50;;;24.93;;
13849;SDS011;6995;52.618;13.488;2024-02-26T02:25:18;27.70;;;25.87;;
13849;SDS011;6995;52.618;13.488;2024-02-26T02:27:43;33.40;;;31.33;;
13849;SDS011;6995;52.618;13.488;2024-02-26T02:30:09;30.73;;;28.93;;
13849;SDS011;6995;52.618;13.488;2024-02-26T02:32:37;30.23;;;28.33;;
13849;SDS011;6995;52.618;13.488;2024-02-26T02:35:04;29.80;;;28.10;;
13849;SDS011;6995;52.618;13.488;2024-02-26T02:37:30;30.43;;;28.70;;
13849;SDS011;6995;52.618;13.488;2024-02-26T02:39:56;28.40;;;26.70;;
13849;SDS011;6995;52.618;13.488;2024-02-26T02:42:22;29.37;;;27.77;;
13849;SDS011;6995;52.618;13.488;2024-02-26T02:44:48;28.03;;;26.53;;
13849;SDS011;6995;52.618;13.488;2024-02-26T02:47:14;27.23;;;25.57;;
13849;SDS011;6995;52.618;13.488;2024-02-26T02:49:40;29.37;;;27.63;;
13849;SDS011;6995;52.618;13.488;2024-02-26T02:52:05;28.37;;;26.57;;
13849;SDS011;6995;52.618;13.488;2024-02-26T02:54:31;26.70;;;25.10;;
13849;SDS011;6995;52.618;13.488;2024-02-26T02:56:57;27.77;;;26.17;;
13849;SDS011;6995;52.618;13.488;2024-02-26T02:59:22;27.93;;;26.33;;
13849;SDS011;6995;52.618;13.488;2024-02-26T03:01:48;26.50;;;24.90;;
13849;SDS011;6995;52.618;13.488;2024-02-26T03:04:14;27.47;;;25.77;;
13849;SDS011;6995;52.618;13.488;2024-02-26T03:06:40;26.83;;;25.30;;
13849;SDS011;6995;52.618;13.488;2024-02-26T03:09:05;28.77;;;27.13;;
13849;SDS011;6995;52.618;13.488;2024-02-26T03:11:31;28.53;;;26.93;;
13849;SDS011;6995;52.618;13.488;2024-02-26T03:14:03;28.50;;;26.90;;
13849;SDS011;6995;52.618;13.488;2024-02-26T03:16:30;26.47;;;25.07;;
13849;SDS011;6995;52.618;13.488;2024-02-26T03:18:55;28.07;;;26.47;;
13849;SDS011;6995;52.618;13.488;2024-02-26T03:21:21;28.40;;;26.57;;
13849;SDS011;6995;52.618;13.488;2024-02-26T03:23:46;28.73;;;27.00;;
13849;SDS011;6995;52.618;13.488;2024-02-26T03:26:12;24.60;;;23.07;;
13849;SDS011;6995;52.618;13.488;2024-02-26T03:28:39;26.00;;;24.40;;
13849;SDS011;6995;52.618;13.488;2024-02-26T03:31:05;26.90;;;25.47;;
13849;SDS011;6995;52.618;13.488;2024-02-26T03:33:31;28.13;;;26.37;;
13849;SDS011;6995;52.618;13.488;2024-02-26T03:35:56;29.13;;;27.47;;
13849;SDS011;6995;52.618;13.488;2024-02-26T03:38:22;26.83;;;25.23;;
13849;SDS011;6995;52.618;13.488;2024-02-26T03:40:48;29.50;;;27.70;;
13849;SDS011;6995;52.618;13.488;2024-02-26T03:43:14;29.17;;;27.27;;
13849;SDS011;6995;52.618;13.488;2024-02-26T03:45:39;29.60;;;27.67;;
13849;SDS011;6995;52.618;13.488;2024-02-26T03:48:05;29.53;;;27.67;;
13849;SDS011;6995;52.618;13.488;2024-02-26T03:50:31;30.97;;;29.20;;
13849;SDS011;6995;52.618;13.488;2024-02-26T03:52:57;30.83;;;28.83;;
13849;SDS011;6995;52.618;13.488;2024-02-26T03:55:23;31.43;;;29.53;;
13849;SDS011;6995;52.618;13.488;2024-02-26T03:57:53;29.67;;;27.63;;
13849;SDS011;6995;52.618;13.488;2024-02-26T04:00:19;27.50;;;25.77;;
13849;SDS011;6995;52.618;13.488;2024-02-26T04:02:46;32.17;;;30.37;;
13849;SDS011;6995;52.618;13.488;2024-02-26T04:05:12;32.17;;;30.00;;
13849;SDS011;6995;52.618;13.488;2024-02-26T04:07:38;28.67;;;26.97;;
13849;SDS011;6995;52.618;13.488;2024-02-26T04:10:08;30.70;;;28.80;;
13849;SDS011;6995;52.618;13.488;2024-02-26T04:12:40;29.20;;;27.40;;
13849;SDS011;6995;52.618;13.488;2024-02-26T04:15:09;31.40;;;29.60;;
13849;SDS011;6995;52.618;13.488;2024-02-26T04:17:36;30.93;;;28.93;;
13849;SDS011;6995;52.618;13.488;2024-02-26T04:20:03;30.00;;;28.23;;
13849;SDS011;6995;52.618;13.488;2024-02-26T04:22:30;31.93;;;29.67;;
13849;SDS011;6995;52.618;13.488;2024-02-26T04:24:57;29.80;;;27.80;;
13849;SDS011;6995;52.618;13.488;2024-02-26T04:27:22;34.53;;;32.50;;
13849;SDS011;6995;52.618;13.488;2024-02-26T04:29:48;33.20;;;30.80;;
13849;SDS011;6995;52.618;13.488;2024-02-26T04:32:13;30.67;;;28.67;;
13849;SDS011;6995;52.618;13.488;2024-02-26T04:34:39;31.67;;;29.67;;
13849;SDS011;6995;52.618;13.488;2024-02-26T04:37:05;29.80;;;27.60;;
13849;SDS011;6995;52.618;13.488;2024-02-26T04:39:30;31.53;;;29.37;;
13849;SDS011;6995;52.618;13.488;2024-02-26T04:41:56;34.73;;;32.50;;
13849;SDS011;6995;52.618;13.488;2024-02-26T04:44:21;34.33;;;32.17;;
13849;SDS011;6995;52.618;13.488;2024-02-26T04:46:47;35.20;;;32.90;;
13849;SDS011;6995;52.618;13.488;2024-02-26T04:49:13;34.47;;;32.30;;
13849;SDS011;6995;52.618;13.488;2024-02-26T04:51:38;31.87;;;29.77;;
13849;SDS011;6995;52.618;13.488;2024-02-26T04:54:04;29.27;;;27.43;;
13849;SDS011;6995;52.618;13.488;2024-02-26T04:56:29;32.87;;;30.97;;
13849;SDS011;6995;52.618;13.488;2024-02-26T04:58:55;30.27;;;28.27;;
13849;SDS011;6995;52.618;13.488;2024-02-26T05:01:21;34.57;;;32.40;;
13849;SDS011;6995;52.618;13.488;2024-02-26T05:03:46;31.57;;;29.70;;
13849;SDS011;6995;52.618;13.488;2024-02-26T05:06:12;29.53;;;27.70;;
13849;SDS011;6995;52.618;13.488;2024-02-26T05:08:38;31.07;;;29.17;;
13849;SDS011;6995;52.618;13.488;2024-02-26T05:11:04;29.57;;;27.73;;
13849;SDS011;6995;52.618;13.488;2024-02-26T05:13:29;31.33;;;29.40;;
13849;SDS011;6995;52.618;13.488;2024-02-26T05:15:55;30.00;;;28.13;;
13849;SDS011;6995;52.618;13.488;2024-02-26T05:18:24;32.67;;;30.37;;
13849;SDS011;6995;52.618;13.488;2024-02-26T05:20:50;40.90;;;38.40;;
13849;SDS011;6995;52.618;13.488;2024-02-26T05:23:15;38.93;;;36.20;;
13849;SDS011;6995;52.618;13.488;2024-02-26T05:25:41;35.90;;;33.60;;
13849;SDS011;6995;52.618;13.488;2024-02-26T05:28:07;32.77;;;30.47;;
13849;SDS011;6995;52.618;13.488;2024-02-26T05:30:32;34.17;;;32.07;;
13849;SDS011;6995;52.618;13.488;2024-02-26T05:32:58;32.23;;;29.93;;
13849;SDS011;6995;52.618;13.488;2024-02-26T05:35:24;35.10;;;32.60;;
13849;SDS011;6995;52.618;13.488;2024-02-26T05:37:53;32.07;;;29.63;;
13849;SDS011;6995;52.618;13.488;2024-02-26T05:40:19;35.43;;;32.93;;
13849;SDS011;6995;52.618;13.488;2024-02-26T05:42:44;33.50;;;31.20;;
13849;SDS011;6995;52.618;13.488;2024-02-26T05:45:10;35.80;;;33.37;;
13849;SDS011;6995;52.618;13.488;2024-02-26T05:47:36;35.20;;;32.27;;
13849;SDS011;6995;52.618;13.488;2024-02-26T05:50:07;33.50;;;30.73;;
13849;SDS011;6995;52.618;13.488;2024-02-26T05:52:35;33.27;;;30.93;;
13849;SDS011;6995;52.618;13.488;2024-02-26T05:55:05;32.43;;;30.13;;
13849;SDS011;6995;52.618;13.488;2024-02-26T05:57:31;31.67;;;29.27;;
13849;SDS011;6995;52.618;13.488;2024-02-26T05:59:58;33.60;;;30.93;;
13849;SDS011;6995;52.618;13.488;2024-02-26T06:02:28;34.57;;;32.20;;
13849;SDS011;6995;52.618;13.488;2024-02-26T06:04:56;33.53;;;31.13;;
13849;SDS011;6995;52.618;13.488;2024-02-26T06:07:23;31.93;;;29.70;;
13849;SDS011;6995;52.618;13.488;2024-02-26T06:09:48;32.47;;;30.17;;
13849;SDS011;6995;52.618;13.488;2024-02-26T06:12:14;39.83;;;37.07;;
13849;SDS011;6995;52.618;13.488;2024-02-26T06:14:40;32.57;;;30.37;;
13849;SDS011;6995;52.618;13.488;2024-02-26T06:17:07;35.43;;;32.47;;
13849;SDS011;6995;52.618;13.488;2024-02-26T06:19:32;33.73;;;31.37;;
13849;SDS011;6995;52.618;13.488;2024-02-26T06:22:01;34.13;;;31.47;;
13849;SDS011;6995;52.618;13.488;2024-02-26T06:24:26;34.67;;;32.37;;
13849;SDS011;6995;52.618;13.488;2024-02-26T06:26:53;34.27;;;31.53;;
13849;SDS011;6995;52.618;13.488;2024-02-26T06:29:19;35.30;;;33.17;;
13849;SDS011;6995;52.618;13.488;2024-02-26T06:31:44;37.13;;;34.53;;
13849;SDS011;6995;52.618;13.488;2024-02-26T06:34:10;37.50;;;34.80;;
13849;SDS011;6995;52.618;13.488;2024-02-26T06:36:36;36.37;;;33.80;;
13849;SDS011;6995;52.618;13.488;2024-02-26T06:39:02;35.83;;;33.33;;
13849;SDS011;6995;52.618;13.488;2024-02-26T06:41:28;34.93;;;32.43;;
13849;SDS011;6995;52.618;13.488;2024-02-26T06:43:54;34.70;;;32.33;;
13849;SDS011;6995;52.618;13.488;2024-02-26T06:46:20;44.63;;;35.57;;
13849;SDS011;6995;52.618;13.488;2024-02-26T06:48:47;35.50;;;32.00;;
13849;SDS011;6995;52.618;13.488;2024-02-26T06:51:14;35.07;;;32.63;;
13849;SDS011;6995;52.618;13.488;2024-02-26T06:53:39;38.83;;;35.80;;
13849;SDS011;6995;52.618;13.488;2024-02-26T06:56:05;36.13;;;33.20;;
13849;SDS011;6995;52.618;13.488;2024-02-26T06:58:31;33.30;;;30.87;;
13849;SDS011;6995;52.618;13.488;2024-02-26T07:00:57;37.43;;;34.30;;
13849;SDS011;6995;52.618;13.488;2024-02-26T07:03:22;34.17;;;31.20;;
13849;SDS011;6995;52.618;13.488;2024-02-26T07:05:49;42.17;;;39.57;;
13849;SDS011;6995;52.618;13.488;2024-02-26T07:08:15;37.37;;;34.77;;
13849;SDS011;6995;52.618;13.488;2024-02-26T07:10:41;42.40;;;39.57;;
13849;SDS011;6995;52.618;13.488;2024-02-26T07:13:06;57.80;;;53.73;;
13849;SDS011;6995;52.618;13.488;2024-02-26T07:15:32;45.37;;;42.30;;
13849;SDS011;6995;52.618;13.488;2024-02-26T07:17:58;37.80;;;35.20;;
13849;SDS011;6995;52.618;13.488;2024-02-26T07:20:28;38.83;;;35.87;;
13849;SDS011;6995;52.618;13.488;2024-02-26T07:22:54;35.93;;;33.23;;
13849;SDS011;6995;52.618;13.488;2024-02-26T07:25:26;43.03;;;39.80;;
13849;SDS011;6995;52.618;13.488;2024-02-26T07:27:52;38.23;;;35.57;;
13849;SDS011;6995;52.618;13.488;2024-02-26T07:30:17;36.53;;;33.90;;
13849;SDS011;6995;52.618;13.488;2024-02-26T07:32:43;37.93;;;35.13;;
13849;SDS011;6995;52.618;13.488;2024-02-26T07:35:09;36.10;;;33.20;;
13849;SDS011;6995;52.618;13.488;2024-02-26T07:37:35;37.77;;;34.90;;
13849;SDS011;6995;52.618;13.488;2024-02-26T07:40:01;41.30;;;38.07;;
13849;SDS011;6995;52.618;13.488;2024-02-26T07:42:26;36.10;;;33.57;;
13849;SDS011;6995;52.618;13.488;2024-02-26T07:44:52;42.10;;;38.73;;
13849;SDS011;6995;52.618;13.488;2024-02-26T07:47:18;39.20;;;36.10;;
13849;SDS011;6995;52.618;13.488;2024-02-26T07:49:44;42.13;;;39.33;;
13849;SDS011;6995;52.618;13.488;2024-02-26T07:52:10;46.33;;;42.77;;
13849;SDS011;6995;52.618;13.488;2024-02-26T07:54:35;42.47;;;39.43;;
13849;SDS011;6995;52.618;13.488;2024-02-26T07:57:01;41.83;;;38.93;;
13849;SDS011;6995;52.618;13.488;2024-02-26T07:59:30;35.60;;;32.87;;
13849;SDS011;6995;52.618;13.488;2024-02-26T08:01:56;38.43;;;35.53;;
13849;SDS011;6995;52.618;13.488;2024-02-26T08:04:22;39.90;;;36.80;;
13849;SDS011;6995;52.618;13.488;2024-02-26T08:06:47;42.80;;;39.87;;
13849;SDS011;6995;52.618;13.488;2024-02-26T08:09:13;44.10;;;41.07;;
13849;SDS011;6995;52.618;13.488;2024-02-26T08:11:38;49.43;;;45.73;;
13849;SDS011;6995;52.618;13.488;2024-02-26T08:14:04;44.97;;;41.90;;
13849;SDS011;6995;52.618;13.488;2024-02-26T08:16:30;40.63;;;37.40;;
13849;SDS011;6995;52.618;13.488;2024-02-26T08:18:55;41.60;;;38.63;;
13849;SDS011;6995;52.618;13.488;2024-02-26T08:21:21;43.40;;;40.57;;
13849;SDS011;6995;52.618;13.488;2024-02-26T08:23:47;43.20;;;40.27;;
13849;SDS011;6995;52.618;13.488;2024-02-26T08:26:12;48.43;;;44.90;;
13849;SDS011;6995;52.618;13.488;2024-02-26T08:28:38;43.77;;;40.73;;
13849;SDS011;6995;52.618;13.488;2024-02-26T08:31:03;44.07;;;40.83;;
13849;SDS011;6995;52.618;13.488;2024-02-26T08:33:29;40.27;;;37.37;;
13849;SDS011;6995;52.618;13.488;2024-02-26T08:35:55;40.07;;;37.17;;
13849;SDS011;6995;52.618;13.488;2024-02-26T08:38:21;36.30;;;33.50;;
13849;SDS011;6995;52.618;13.488;2024-02-26T08:40:48;36.63;;;33.87;;
13849;SDS011;6995;52.618;13.488;2024-02-26T08:43:13;36.17;;;33.47;;
13849;SDS011;6995;52.618;13.488;2024-02-26T08:45:39;39.43;;;36.63;;
13849;SDS011;6995;52.618;13.488;2024-02-26T08:48:05;41.33;;;38.47;;
13849;SDS011;6995;52.618;13.488;2024-02-26T08:50:31;50.07;;;46.83;;
13849;SDS011;6995;52.618;13.488;2024-02-26T08:52:56;41.13;;;38.23;;
13849;SDS011;6995;52.618;13.488;2024-02-26T08:55:22;42.53;;;39.43;;
13849;SDS011;6995;52.618;13.488;2024-02-26T08:57:48;45.30;;;42.20;;
13849;SDS011;6995;52.618;13.488;2024-02-26T09:00:13;41.70;;;38.60;;
13849;SDS011;6995;52.618;13.488;2024-02-26T09:02:40;36.80;;;34.00;;
13849;SDS011;6995;52.618;13.488;2024-02-26T09:05:08;37.43;;;34.63;;
13849;SDS011;6995;52.618;13.488;2024-02-26T09:07:35;38.27;;;35.37;;
13849;SDS011;6995;52.618;13.488;2024-02-26T09:10:01;40.13;;;37.23;;
13849;SDS011;6995;52.618;13.488;2024-02-26T09:12:26;40.60;;;37.70;;
13849;SDS011;6995;52.618;13.488;2024-02-26T09:14:52;44.00;;;41.00;;
13849;SDS011;6995;52.618;13.488;2024-02-26T09:17:18;43.73;;;40.37;;
13849;SDS011;6995;52.618;13.488;2024-02-26T09:19:43;42.50;;;39.23;;
13849;SDS011;6995;52.618;13.488;2024-02-26T09:22:09;42.80;;;39.80;;
13849;SDS011;6995;52.618;13.488;2024-02-26T09:24:35;39.90;;;37.10;;
13849;SDS011;6995;52.618;13.488;2024-02-26T09:27:01;38.73;;;35.87;;
13849;SDS011;6995;52.618;13.488;2024-02-26T09:29:27;36.40;;;33.73;;
13849;SDS011;6995;52.618;13.488;2024-02-26T09:31:53;38.70;;;35.80;;
13849;SDS011;6995;52.618;13.488;2024-02-26T09:34:18;36.03;;;33.23;;
13849;SDS011;6995;52.618;13.488;2024-02-26T09:36:44;36.83;;;34.07;;
13849;SDS011;6995;52.618;13.488;2024-02-26T09:39:09;36.00;;;33.43;;
13849;SDS011;6995;52.618;13.488;2024-02-26T09:41:36;36.73;;;33.97;;
13849;SDS011;6995;52.618;13.488;2024-02-26T09:44:02;38.67;;;35.77;;
13849;SDS011;6995;52.618;13.488;2024-02-26T09:46:29;36.23;;;33.57;;
13849;SDS011;6995;52.618;13.488;2024-02-26T09:48:55;37.57;;;34.83;;
13849;SDS011;6995;52.618;13.488;2024-02-26T09:51:22;35.10;;;32.50;;
13849;SDS011;6995;52.618;13.488;2024-02-26T09:53:54;36.93;;;34.43;;
13849;SDS011;6995;52.618;13.488;2024-02-26T09:56:21;37.23;;;34.57;;
13849;SDS011;6995;52.618;13.488;2024-02-26T09:58:47;35.00;;;32.30;;
13849;SDS011;6995;52.618;13.488;2024-02-26T10:01:18;36.60;;;33.80;;
13849;SDS011;6995;52.618;13.488;2024-02-26T10:03:46;36.03;;;33.27;;
13849;SDS011;6995;52.618;13.488;2024-02-26T10:06:16;35.23;;;32.70;;
13849;SDS011;6995;52.618;13.488;2024-02-26T10:08:42;34.57;;;31.83;;
13849;SDS011;6995;52.618;13.488;2024-02-26T10:11:09;34.80;;;32.30;;
13849;SDS011;6995;52.618;13.488;2024-02-26T10:13:35;35.93;;;33.17;;
13849;SDS011;6995;52.618;13.488;2024-02-26T10:16:01;39.93;;;37.13;;
13849;SDS011;6995;52.618;13.488;2024-02-26T10:18:52;40.00;;;37.17;;
13849;SDS011;6995;52.618;13.488;2024-02-26T10:21:19;36.33;;;33.63;;
13849;SDS011;6995;52.618;13.488;2024-02-26T10:23:45;38.77;;;35.83;;
13849;SDS011;6995;52.618;13.488;2024-02-26T10:26:12;40.13;;;37.40;;
13849;SDS011;6995;52.618;13.488;2024-02-26T10:28:39;36.47;;;33.87;;
13849;SDS011;6995;52.618;13.488;2024-02-26T10:31:06;41.07;;;37.73;;
13849;SDS011;6995;52.618;13.488;2024-02-26T10:33:33;37.37;;;34.50;;
13849;SDS011;6995;52.618;13.488;2024-02-26T10:36:06;36.10;;;33.27;;
13849;SDS011;6995;52.618;13.488;2024-02-26T10:38:35;36.90;;;34.43;;
13849;SDS011;6995;52.618;13.488;2024-02-26T10:41:02;35.73;;;33.03;;
13849;SDS011;6995;52.618;13.488;2024-02-26T10:43:28;36.40;;;33.77;;
13849;SDS011;6995;52.618;13.488;2024-02-26T10:45:57;35.47;;;32.83;;
13849;SDS011;6995;52.618;13.488;2024-02-26T10:48:23;33.20;;;30.73;;
13849;SDS011;6995;52.618;13.488;2024-02-26T10:50:49;37.87;;;35.03;;
13849;SDS011;6995;52.618;13.488;2024-02-26T10:53:17;34.23;;;31.47;;
13849;SDS011;6995;52.618;13.488;2024-02-26T10:55:46;34.07;;;31.77;;
13849;SDS011;6995;52.618;13.488;2024-02-26T10:58:14;35.80;;;33.00;;
13849;SDS011;6995;52.618;13.488;2024-02-26T11:00:42;35.03;;;32.37;;
13849;SDS011;6995;52.618;13.488;2024-02-26T11:03:08;34.63;;;32.03;;
13849;SDS011;6995;52.618;13.488;2024-02-26T11:05:35;37.10;;;34.50;;
13849;SDS011;6995;52.618;13.488;2024-02-26T11:08:02;36.47;;;33.73;;
13849;SDS011;6995;52.618;13.488;2024-02-26T11:10:30;35.93;;;33.23;;
13849;SDS011;6995;52.618;13.488;2024-02-26T11:12:56;34.97;;;32.23;;
13849;SDS011;6995;52.618;13.488;2024-02-26T11:15:26;41.03;;;37.90;;
13849;SDS011;6995;52.618;13.488;2024-02-26T11:17:54;37.37;;;34.40;;
13849;SDS011;6995;52.618;13.488;2024-02-26T11:20:21;36.93;;;34.07;;
13849;SDS011;6995;52.618;13.488;2024-02-26T11:22:48;37.83;;;34.87;;
13849;SDS011;6995;52.618;13.488;2024-02-26T11:25:14;38.93;;;36.07;;
13849;SDS011;6995;52.618;13.488;2024-02-26T11:27:49;33.90;;;31.23;;
13849;SDS011;6995;52.618;13.488;2024-02-26T11:30:23;35.23;;;32.53;;
13849;SDS011;6995;52.618;13.488;2024-02-26T11:32:51;36.43;;;33.40;;
13849;SDS011;6995;52.618;13.488;2024-02-26T11:35:18;35.70;;;33.00;;
13849;SDS011;6995;52.618;13.488;2024-02-26T11:40:19;34.17;;;31.57;;
13849;SDS011;6995;52.618;13.488;2024-02-26T11:42:45;34.53;;;31.90;;
13849;SDS011;6995;52.618;13.488;2024-02-26T11:48:16;31.97;;;29.77;;
13849;SDS011;6995;52.618;13.488;2024-02-26T11:50:49;35.00;;;32.30;;
13849;SDS011;6995;52.618;13.488;2024-02-26T11:58:42;31.83;;;29.50;;
13849;SDS011;6995;52.618;13.488;2024-02-26T12:04:20;33.27;;;30.73;;
13849;SDS011;6995;52.618;13.488;2024-02-26T12:06:55;31.47;;;29.47;;
13849;SDS011;6995;52.618;13.488;2024-02-26T12:09:41;32.08;;;29.65;;
13849;SDS011;6995;52.618;13.488;2024-02-26T12:12:08;30.40;;;28.50;;
13849;SDS011;6995;52.618;13.488;2024-02-26T12:14:39;34.27;;;31.70;;
13849;SDS011;6995;52.618;13.488;2024-02-26T12:17:18;28.80;;;26.92;;
13849;SDS011;6995;52.618;13.488;2024-02-26T12:19:45;28.88;;;26.92;;
13849;SDS011;6995;52.618;13.488;2024-02-26T12:22:12;30.30;;;27.73;;
13849;SDS011;6995;52.618;13.488;2024-02-26T12:24:39;26.73;;;25.05;;
13849;SDS011;6995;52.618;13.488;2024-02-26T12:27:05;27.05;;;25.42;;
13849;SDS011;6995;52.618;13.488;2024-02-26T12:29:31;29.05;;;27.05;;
13849;SDS011;6995;52.618;13.488;2024-02-26T12:31:57;29.27;;;27.58;;
13849;SDS011;6995;52.618;13.488;2024-02-26T12:34:23;32.25;;;30.13;;
13849;SDS011;6995;52.618;13.488;2024-02-26T12:36:49;27.50;;;25.58;;
13849;SDS011;6995;52.618;13.488;2024-02-26T12:39:14;28.75;;;26.77;;
13849;SDS011;6995;52.618;13.488;2024-02-26T12:41:40;32.33;;;30.33;;
13849;SDS011;6995;52.618;13.488;2024-02-26T12:44:07;31.23;;;29.33;;
13849;SDS011;6995;52.618;13.488;2024-02-26T12:46:33;30.35;;;28.45;;
13849;SDS011;6995;52.618;13.488;2024-02-26T12:48:58;28.05;;;26.27;;
13849;SDS011;6995;52.618;13.488;2024-02-26T12:51:25;28.15;;;26.25;;
13849;SDS011;6995;52.618;13.488;2024-02-26T12:53:52;28.27;;;26.58;;
13849;SDS011;6995;52.618;13.488;2024-02-26T12:56:18;25.75;;;23.95;;
13849;SDS011;6995;52.618;13.488;2024-02-26T12:58:45;25.60;;;23.92;;
13849;SDS011;6995;52.618;13.488;2024-02-26T13:01:14;28.85;;;27.15;;
13849;SDS011;6995;52.618;13.488;2024-02-26T13:03:40;26.73;;;24.95;;
13849;SDS011;6995;52.618;13.488;2024-02-26T13:06:06;23.90;;;22.45;;
13849;SDS011;6995;52.618;13.488;2024-02-26T13:08:32;25.75;;;24.25;;
13849;SDS011;6995;52.618;13.488;2024-02-26T13:10:58;27.60;;;25.70;;
13849;SDS011;6995;52.618;13.488;2024-02-26T13:13:27;25.38;;;23.83;;
13849;SDS011;6995;52.618;13.488;2024-02-26T13:16:06;25.25;;;23.75;;
13849;SDS011;6995;52.618;13.488;2024-02-26T13:18:34;24.58;;;23.15;;
13849;SDS011;6995;52.618;13.488;2024-02-26T13:21:11;26.10;;;24.65;;
13849;SDS011;6995;52.618;13.488;2024-02-26T13:23:38;23.35;;;21.80;;
13849;SDS011;6995;52.618;13.488;2024-02-26T13:26:05;25.55;;;24.05;;
13849;SDS011;6995;52.618;13.488;2024-02-26T13:28:31;24.58;;;23.05;;
13849;SDS011;6995;52.618;13.488;2024-02-26T13:30:58;24.05;;;22.75;;
13849;SDS011;6995;52.618;13.488;2024-02-26T13:33:25;23.65;;;22.35;;
13849;SDS011;6995;52.618;13.488;2024-02-26T13:35:52;25.50;;;24.10;;
13849;SDS011;6995;52.618;13.488;2024-02-26T13:38:18;24.50;;;22.92;;
13849;SDS011;6995;52.618;13.488;2024-02-26T13:40:44;24.77;;;23.33;;
13849;SDS011;6995;52.618;13.488;2024-02-26T13:43:09;26.13;;;24.73;;
13849;SDS011;6995;52.618;13.488;2024-02-26T13:45:35;26.95;;;25.30;;
13849;SDS011;6995;52.618;13.488;2024-02-26T13:48:05;23.98;;;22.35;;
13849;SDS011;6995;52.618;13.488;2024-02-26T13:50:33;27.05;;;25.63;;
13849;SDS011;6995;52.618;13.488;2024-02-26T13:52:58;26.77;;;25.27;;
13849;SDS011;6995;52.618;13.488;2024-02-26T13:55:27;28.25;;;26.55;;
13849;SDS011;6995;52.618;13.488;2024-02-26T13:57:55;23.70;;;22.17;;
13849;SDS011;6995;52.618;13.488;2024-02-26T14:00:22;27.90;;;26.08;;
13849;SDS011;6995;52.618;13.488;2024-02-26T14:02:48;25.92;;;24.42;;
13849;SDS011;6995;52.618;13.488;2024-02-26T14:05:14;26.13;;;24.63;;
13849;SDS011;6995;52.618;13.488;2024-02-26T14:07:39;27.00;;;25.50;;
13849;SDS011;6995;52.618;13.488;2024-02-26T14:10:06;24.83;;;23.48;;
13849;SDS011;6995;52.618;13.488;2024-02-26T14:12:32;28.27;;;26.60;;
13849;SDS011;6995;52.618;13.488;2024-02-26T14:14:58;28.00;;;26.50;;
13849;SDS011;6995;52.618;13.488;2024-02-26T14:17:25;28.63;;;26.83;;
13849;SDS011;6995;52.618;13.488;2024-02-26T14:19:51;27.85;;;26.25;;
13849;SDS011;6995;52.618;13.488;2024-02-26T14:22:17;28.50;;;26.93;;
13849;SDS011;6995;52.618;13.488;2024-02-26T14:24:43;29.93;;;28.23;;
13849;SDS011;6995;52.618;13.488;2024-02-26T14:27:09;25.80;;;24.20;;
13849;SDS011;6995;52.618;13.488;2024-02-26T14:29:39;27.00;;;25.40;;
13849;SDS011;6995;52.618;13.488;2024-02-26T14:32:06;27.85;;;26.25;;
13849;SDS011;6995;52.618;13.488;2024-02-26T14:34:32;28.20;;;26.50;;